Pecs/Pogany, Hungary
Current Conditions -  °F | °C
As of 8:54 AM on Sunday 26 Oct 2014 (Local Time) from LHPP Reporting Station
Haze Haze  
Wind Chill: 45°   Ceiling: 600
Heat Index: 45°   Visibility: 1.8mi
Dew Point: 45°   Wind: 2mph
Humidity: 100%   Direction: 180°S
Pressure: 30.42"   Gusts: NA
Location:  46.1°N, 18.23°E
Report Text: LHPP 260654Z 18002KT 3000 BR OVC006 07/07 Q1030
Loading
Personal Weather Stations






























Interactive Weather Map
Tropical Storm Tracking
New forecast layout! Learn more

10-Day Weather Forecast

Advertisements
Track Severe Weather on mobile